createdAt,value
2024-03-30T00:02:07.261Z,23.5
2024-03-30T00:07:25.384Z,23.5
2024-03-30T00:12:43.302Z,23.5
2024-03-30T00:18:01.668Z,23.5
2024-03-30T00:23:19.778Z,23.5
2024-03-30T00:28:38.101Z,23.5
2024-03-30T00:33:56.507Z,23.5
2024-03-30T00:39:14.465Z,23.5
2024-03-30T00:50:00.675Z,23.5
2024-03-30T00:55:18.970Z,23.5
2024-03-30T01:00:37.315Z,23.5
2024-03-30T01:05:55.688Z,23.5
2024-03-30T01:11:13.787Z,23.5
2024-03-30T01:16:31.738Z,23.6
2024-03-30T01:21:54.030Z,23.6
2024-03-30T01:27:12.128Z,23.6
2024-03-30T01:32:30.266Z,23.5
2024-03-30T01:37:48.392Z,23.6
2024-03-30T01:43:06.917Z,23.6
2024-03-30T01:48:25.043Z,23.6
2024-03-30T01:53:44.798Z,23.6
2024-03-30T01:59:03.123Z,23.6
2024-03-30T02:04:21.243Z,23.6
2024-03-30T02:09:39.382Z,23.6
2024-03-30T02:14:57.888Z,23.6
2024-03-30T02:20:16.016Z,23.6
2024-03-30T02:25:34.539Z,23.6
2024-03-30T02:30:52.671Z,23.6
2024-03-30T02:36:10.990Z,23.6
2024-03-30T02:41:29.335Z,23.6
2024-03-30T02:46:47.823Z,23.6
2024-03-30T02:52:06.155Z,23.6
2024-03-30T02:57:24.131Z,23.6
2024-03-30T03:02:42.423Z,23.6
2024-03-30T03:08:00.953Z,23.6
2024-03-30T03:13:19.293Z,23.6
2024-03-30T03:18:37.844Z,23.6
2024-03-30T03:23:55.991Z,23.6
2024-03-30T03:29:14.124Z,23.6
2024-03-30T03:34:32.658Z,23.6
2024-03-30T03:39:51.416Z,23.6
2024-03-30T03:45:09.370Z,23.6
2024-03-30T03:50:27.677Z,23.6
2024-03-30T03:55:46.192Z,23.6
2024-03-30T04:01:04.729Z,23.6
2024-03-30T04:06:23.238Z,23.6
2024-03-30T04:11:41.360Z,23.6
2024-03-30T04:16:59.329Z,23.6
2024-03-30T04:22:17.827Z,23.6
2024-03-30T04:27:35.959Z,23.6
2024-03-30T04:32:54.325Z,23.6
2024-03-30T04:38:12.818Z,23.6
2024-03-30T04:43:30.950Z,23.6
2024-03-30T04:48:49.294Z,23.6
2024-03-30T04:54:07.623Z,23.6
2024-03-30T04:59:25.758Z,23.6
2024-03-30T05:04:43.731Z,23.7
2024-03-30T05:10:02.040Z,23.7
2024-03-30T05:15:20.168Z,23.7
2024-03-30T05:20:38.598Z,23.7
2024-03-30T05:25:56.770Z,23.7
2024-03-30T05:31:15.294Z,23.7
2024-03-30T05:36:33.818Z,23.7
2024-03-30T05:41:52.055Z,23.7
2024-03-30T05:47:15.531Z,23.7
2024-03-30T05:52:34.122Z,23.7
2024-03-30T05:57:52.427Z,23.7
2024-03-30T06:03:10.560Z,23.8
2024-03-30T06:08:29.676Z,23.8
2024-03-30T06:13:48.218Z,23.8
2024-03-30T06:19:06.910Z,23.9
2024-03-30T06:24:25.058Z,23.9
2024-03-30T06:29:43.188Z,23.9
2024-03-30T06:35:01.330Z,24
2024-03-30T06:40:19.636Z,24
2024-03-30T06:45:37.764Z,24
2024-03-30T06:50:56.140Z,24.1
2024-03-30T06:55:59.058Z,24.1
2024-03-30T07:01:16.964Z,24.1
2024-03-30T07:06:35.080Z,24.1
2024-03-30T07:11:53.229Z,24.1
2024-03-30T07:17:15.306Z,24.1
2024-03-30T07:22:33.714Z,24.1
2024-03-30T07:27:51.964Z,24.1
2024-03-30T07:33:12.537Z,24.1
2024-03-30T07:38:33.326Z,24.1
2024-03-30T07:43:51.883Z,24.2
2024-03-30T07:49:13.171Z,24.2
2024-03-30T07:54:31.108Z,24.3
2024-03-30T07:59:49.382Z,24.3
2024-03-30T08:05:07.940Z,24.3
2024-03-30T08:10:26.188Z,24.4
2024-03-30T08:15:44.648Z,24.4
2024-03-30T08:21:02.973Z,24.4
2024-03-30T08:26:21.067Z,24.3
2024-03-30T08:31:39.361Z,24.4
2024-03-30T08:36:57.955Z,24.5
2024-03-30T08:42:22.047Z,24.5
2024-03-30T08:47:44.677Z,24.6
2024-03-30T08:53:02.975Z,24.6
2024-03-30T08:58:21.556Z,24.7
2024-03-30T09:03:39.959Z,24.7
2024-03-30T09:08:57.881Z,24.7
2024-03-30T09:14:18.726Z,24.8
2024-03-30T09:19:37.259Z,24.8
2024-03-30T09:24:58.050Z,24.8
2024-03-30T09:30:16.364Z,24.8
2024-03-30T09:35:34.742Z,24.8
2024-03-30T09:40:53.196Z,24.8
2024-03-30T09:46:11.473Z,24.8
2024-03-30T09:51:30.041Z,24.8
2024-03-30T09:56:48.342Z,24.8
2024-03-30T10:02:06.728Z,24.8
2024-03-30T10:07:24.884Z,24.8
2024-03-30T10:12:43.236Z,24.8
2024-03-30T10:18:01.775Z,24.9
2024-03-30T10:23:19.926Z,24.9
2024-03-30T10:28:38.221Z,24.9
2024-03-30T10:33:56.531Z,24.9
2024-03-30T10:39:14.682Z,25
2024-03-30T10:44:32.763Z,24.9
2024-03-30T10:49:51.277Z,24.9
2024-03-30T10:55:09.240Z,24.9
2024-03-30T11:00:27.844Z,24.9
2024-03-30T11:05:46.174Z,24.9
2024-03-30T11:11:04.686Z,24.9
2024-03-30T11:16:23.054Z,24.9
2024-03-30T11:21:41.314Z,24.9
2024-03-30T11:26:59.658Z,24.9
2024-03-30T11:32:17.586Z,24.9
2024-03-30T11:37:35.709Z,24.8
2024-03-30T11:42:53.729Z,24.8
2024-03-30T11:48:11.844Z,24.8
2024-03-30T11:53:30.175Z,24.8
2024-03-30T11:58:48.324Z,24.8
2024-03-30T12:04:06.629Z,24.7
2024-03-30T12:09:24.978Z,24.7
2024-03-30T12:14:43.496Z,24.7
2024-03-30T12:20:02.037Z,24.6
2024-03-30T12:25:20.397Z,24.6
2024-03-30T12:30:38.925Z,24.6
2024-03-30T12:35:57.241Z,24.6
2024-03-30T12:41:15.150Z,24.5
2024-03-30T12:46:33.519Z,24.5
2024-03-30T12:51:51.797Z,24.5
2024-03-30T12:57:09.938Z,24.5
2024-03-30T13:02:32.001Z,24.4
2024-03-30T13:07:50.377Z,24.4
2024-03-30T13:13:10.419Z,24.4
2024-03-30T13:18:29.027Z,24.4
2024-03-30T13:23:47.562Z,24.4
2024-03-30T13:29:05.627Z,24.4
2024-03-30T13:34:23.948Z,24.4
2024-03-30T13:39:42.074Z,24.4
2024-03-30T13:45:00.401Z,24.4
2024-03-30T13:50:18.752Z,24.4
2024-03-30T13:55:37.194Z,24.3
2024-03-30T14:00:55.315Z,24.3
2024-03-30T14:06:13.679Z,24.4
2024-03-30T14:11:31.782Z,24.4
2024-03-30T14:16:50.097Z,24.4
2024-03-30T14:22:08.632Z,24.5
2024-03-30T14:27:26.925Z,24.5
2024-03-30T14:32:45.256Z,24.6
2024-03-30T14:38:03.605Z,24.6
2024-03-30T14:43:22.122Z,24.6
2024-03-30T14:48:40.647Z,24.6
2024-03-30T14:53:58.785Z,24.5
2024-03-30T14:59:16.890Z,24.5
2024-03-30T15:04:35.195Z,24.5
2024-03-30T15:09:53.734Z,24.5
2024-03-30T15:15:11.832Z,24.5
2024-03-30T15:20:30.007Z,24.5
2024-03-30T15:25:48.620Z,24.5
2024-03-30T15:31:06.910Z,24.5
2024-03-30T15:36:24.831Z,24.5
2024-03-30T15:41:43.370Z,24.5
2024-03-30T15:47:01.869Z,24.5
2024-03-30T15:52:20.191Z,24.5
2024-03-30T15:57:38.519Z,24.5
2024-03-30T16:02:56.618Z,24.5
2024-03-30T16:08:15.162Z,24.5
2024-03-30T16:13:33.310Z,24.5
2024-03-30T16:18:51.400Z,24.5
2024-03-30T16:24:09.720Z,24.5
2024-03-30T16:29:27.882Z,24.5
2024-03-30T16:34:46.225Z,24.5
2024-03-30T16:40:04.518Z,24.5
2024-03-30T16:45:22.961Z,24.5
2024-03-30T16:50:40.888Z,24.5
2024-03-30T16:55:59.195Z,24.5
2024-03-30T17:01:17.443Z,24.5
2024-03-30T17:06:35.838Z,24.5
2024-03-30T17:11:55.089Z,24.5
2024-03-30T17:17:13.448Z,24.5
2024-03-30T17:22:31.946Z,24.6
2024-03-30T17:27:52.280Z,24.5
2024-03-30T17:33:14.887Z,24.5
2024-03-30T17:38:33.208Z,24.5
2024-03-30T17:43:51.610Z,24.5
2024-03-30T17:49:09.940Z,24.5
2024-03-30T17:54:28.447Z,24.5
2024-03-30T17:59:46.987Z,24.5
2024-03-30T18:05:05.099Z,24.4
2024-03-30T18:10:24.668Z,24.4
2024-03-30T18:15:42.991Z,24.4
2024-03-30T18:21:01.166Z,24.4
2024-03-30T18:26:19.498Z,24.4
2024-03-30T18:31:37.807Z,24.3
2024-03-30T18:36:56.153Z,24.3
2024-03-30T18:42:14.203Z,24.3
2024-03-30T18:47:32.336Z,24.3
2024-03-30T18:52:51.726Z,24.3
2024-03-30T18:58:10.023Z,24.3
2024-03-30T19:03:28.347Z,24.3
2024-03-30T19:08:46.688Z,24.3
2024-03-30T19:14:04.998Z,24.2
2024-03-30T19:19:23.162Z,24.2
2024-03-30T19:24:41.736Z,24.2
2024-03-30T19:29:59.654Z,24.2
2024-03-30T19:35:17.973Z,24.2
2024-03-30T19:40:36.135Z,24.1
2024-03-30T19:45:54.370Z,24.2
2024-03-30T19:51:12.796Z,24.1
2024-03-30T19:56:31.244Z,24.1
2024-03-30T20:01:49.666Z,24.1
2024-03-30T20:07:07.763Z,24.1
2024-03-30T20:12:28.838Z,24.1
2024-03-30T20:17:46.765Z,24.1
2024-03-30T20:23:05.099Z,24.1
2024-03-30T20:28:23.276Z,24.1
2024-03-30T20:33:41.573Z,24
2024-03-30T20:38:59.710Z,24
2024-03-30T20:44:18.084Z,24
2024-03-30T20:49:36.257Z,24
2024-03-30T20:54:54.430Z,24
2024-03-30T21:00:12.532Z,24
2024-03-30T21:05:31.132Z,24
2024-03-30T21:10:49.458Z,24
2024-03-30T21:15:52.545Z,24
2024-03-30T21:21:10.987Z,24
2024-03-30T21:26:29.265Z,24
2024-03-30T21:31:48.043Z,24
2024-03-30T21:37:06.371Z,24
2024-03-30T21:42:24.910Z,24
2024-03-30T21:47:42.926Z,24
2024-03-30T21:53:01.426Z,24
2024-03-30T21:58:19.746Z,24
2024-03-30T22:03:37.696Z,24
2024-03-30T22:08:55.607Z,24
2024-03-30T22:14:13.923Z,24
2024-03-30T22:19:32.065Z,24
2024-03-30T22:24:50.549Z,24
2024-03-30T22:30:08.686Z,24
2024-03-30T22:35:26.833Z,24
2024-03-30T22:40:45.138Z,24
2024-03-30T22:46:03.461Z,24
2024-03-30T22:51:21.414Z,24
2024-03-30T22:56:39.538Z,24
2024-03-30T23:01:57.665Z,24
2024-03-30T23:07:15.984Z,24
2024-03-30T23:12:34.163Z,24
2024-03-30T23:17:52.457Z,24
2024-03-30T23:23:10.601Z,24
2024-03-30T23:28:28.902Z,24
2024-03-30T23:33:47.328Z,24
2024-03-30T23:39:05.484Z,24
2024-03-30T23:44:23.597Z,24
2024-03-30T23:49:26.099Z,24
2024-03-30T23:54:44.428Z,24
